sensor_id;sensor_type;location;lat;lon;timestamp;P1;durP1;ratioP1;P2;durP2;ratioP2
58139;SDS011;53185;47.378;18.922;2023-08-06T00:01:42;14.05;;;8.30;;
58139;SDS011;53185;47.378;18.922;2023-08-06T00:04:10;15.10;;;7.87;;
58139;SDS011;53185;47.378;18.922;2023-08-06T00:06:37;10.90;;;7.25;;
58139;SDS011;53185;47.378;18.922;2023-08-06T00:09:05;11.30;;;7.87;;
58139;SDS011;53185;47.378;18.922;2023-08-06T00:11:33;10.18;;;7.28;;
58139;SDS011;53185;47.378;18.922;2023-08-06T00:14:01;12.88;;;7.60;;
58139;SDS011;53185;47.378;18.922;2023-08-06T00:16:29;16.25;;;7.30;;
58139;SDS011;53185;47.378;18.922;2023-08-06T00:18:57;10.45;;;7.10;;
58139;SDS011;53185;47.378;18.922;2023-08-06T00:21:25;11.10;;;7.22;;
58139;SDS011;53185;47.378;18.922;2023-08-06T00:23:53;9.18;;;6.60;;
58139;SDS011;53185;47.378;18.922;2023-08-06T00:26:38;15.00;;;8.60;;
58139;SDS011;53185;47.378;18.922;2023-08-06T00:29:06;13.07;;;7.30;;
58139;SDS011;53185;47.378;18.922;2023-08-06T00:31:33;13.68;;;7.03;;
58139;SDS011;53185;47.378;18.922;2023-08-06T00:34:01;11.38;;;7.03;;
58139;SDS011;53185;47.378;18.922;2023-08-06T00:36:29;11.90;;;7.22;;
58139;SDS011;53185;47.378;18.922;2023-08-06T00:38:56;13.57;;;7.75;;
58139;SDS011;53185;47.378;18.922;2023-08-06T00:41:23;11.48;;;7.25;;
58139;SDS011;53185;47.378;18.922;2023-08-06T00:43:51;12.88;;;7.55;;
58139;SDS011;53185;47.378;18.922;2023-08-06T00:46:18;10.48;;;6.97;;
58139;SDS011;53185;47.378;18.922;2023-08-06T00:48:45;12.18;;;7.80;;
58139;SDS011;53185;47.378;18.922;2023-08-06T00:51:13;11.82;;;7.60;;
58139;SDS011;53185;47.378;18.922;2023-08-06T00:53:41;11.68;;;7.43;;
58139;SDS011;53185;47.378;18.922;2023-08-06T00:56:08;11.88;;;7.62;;
58139;SDS011;53185;47.378;18.922;2023-08-06T00:58:36;13.95;;;7.72;;
58139;SDS011;53185;47.378;18.922;2023-08-06T01:01:04;11.35;;;6.97;;
58139;SDS011;53185;47.378;18.922;2023-08-06T01:03:32;12.75;;;7.53;;
58139;SDS011;53185;47.378;18.922;2023-08-06T01:06:00;10.48;;;6.85;;
58139;SDS011;53185;47.378;18.922;2023-08-06T01:08:45;13.82;;;6.30;;
58139;SDS011;53185;47.378;18.922;2023-08-06T01:13:54;11.60;;;6.75;;
58139;SDS011;53185;47.378;18.922;2023-08-06T01:16:27;8.98;;;6.45;;
58139;SDS011;53185;47.378;18.922;2023-08-06T01:18:55;12.00;;;6.93;;
58139;SDS011;53185;47.378;18.922;2023-08-06T01:21:22;9.32;;;6.10;;
58139;SDS011;53185;47.378;18.922;2023-08-06T01:23:50;9.32;;;5.60;;
58139;SDS011;53185;47.378;18.922;2023-08-06T01:31:39;8.25;;;5.25;;
58139;SDS011;53185;47.378;18.922;2023-08-06T01:34:11;10.15;;;5.10;;
58139;SDS011;53185;47.378;18.922;2023-08-06T01:36:44;10.00;;;5.10;;
58139;SDS011;53185;47.378;18.922;2023-08-06T01:39:13;8.27;;;5.12;;
58139;SDS011;53185;47.378;18.922;2023-08-06T01:41:41;10.48;;;5.57;;
58139;SDS011;53185;47.378;18.922;2023-08-06T01:44:09;8.65;;;5.18;;
58139;SDS011;53185;47.378;18.922;2023-08-06T01:46:37;8.38;;;5.22;;
58139;SDS011;53185;47.378;18.922;2023-08-06T01:49:04;8.07;;;5.40;;
58139;SDS011;53185;47.378;18.922;2023-08-06T01:51:31;9.23;;;5.15;;
58139;SDS011;53185;47.378;18.922;2023-08-06T01:53:59;10.68;;;5.80;;
58139;SDS011;53185;47.378;18.922;2023-08-06T01:56:27;11.00;;;5.45;;
58139;SDS011;53185;47.378;18.922;2023-08-06T01:58:54;18.98;;;5.65;;
58139;SDS011;53185;47.378;18.922;2023-08-06T02:01:22;9.13;;;5.25;;
58139;SDS011;53185;47.378;18.922;2023-08-06T02:03:50;8.30;;;5.18;;
58139;SDS011;53185;47.378;18.922;2023-08-06T02:06:18;7.82;;;5.15;;
58139;SDS011;53185;47.378;18.922;2023-08-06T02:08:46;8.45;;;5.62;;
58139;SDS011;53185;47.378;18.922;2023-08-06T02:11:17;7.60;;;4.62;;
58139;SDS011;53185;47.378;18.922;2023-08-06T02:13:45;6.75;;;4.95;;
58139;SDS011;53185;47.378;18.922;2023-08-06T02:16:19;9.80;;;4.68;;
58139;SDS011;53185;47.378;18.922;2023-08-06T02:18:46;10.00;;;4.70;;
58139;SDS011;53185;47.378;18.922;2023-08-06T02:21:14;6.57;;;4.78;;
58139;SDS011;53185;47.378;18.922;2023-08-06T02:23:41;7.75;;;4.85;;
58139;SDS011;53185;47.378;18.922;2023-08-06T02:26:10;7.53;;;4.80;;
58139;SDS011;53185;47.378;18.922;2023-08-06T02:28:37;8.98;;;4.80;;
58139;SDS011;53185;47.378;18.922;2023-08-06T02:31:04;8.13;;;4.32;;
58139;SDS011;53185;47.378;18.922;2023-08-06T02:33:35;5.97;;;4.55;;
58139;SDS011;53185;47.378;18.922;2023-08-06T02:36:03;10.13;;;4.05;;
58139;SDS011;53185;47.378;18.922;2023-08-06T02:38:31;6.50;;;4.00;;
58139;SDS011;53185;47.378;18.922;2023-08-06T02:41:01;5.97;;;3.87;;
58139;SDS011;53185;47.378;18.922;2023-08-06T02:43:30;6.37;;;4.22;;
58139;SDS011;53185;47.378;18.922;2023-08-06T02:45:58;5.05;;;3.40;;
58139;SDS011;53185;47.378;18.922;2023-08-06T02:48:26;5.55;;;3.80;;
58139;SDS011;53185;47.378;18.922;2023-08-06T02:50:56;7.93;;;3.85;;
58139;SDS011;53185;47.378;18.922;2023-08-06T02:53:26;7.20;;;3.90;;
58139;SDS011;53185;47.378;18.922;2023-08-06T02:55:53;9.07;;;4.68;;
58139;SDS011;53185;47.378;18.922;2023-08-06T02:58:23;6.18;;;4.10;;
58139;SDS011;53185;47.378;18.922;2023-08-06T03:01:03;6.68;;;4.22;;
58139;SDS011;53185;47.378;18.922;2023-08-06T03:03:34;11.98;;;4.25;;
58139;SDS011;53185;47.378;18.922;2023-08-06T03:06:02;5.87;;;4.00;;
58139;SDS011;53185;47.378;18.922;2023-08-06T03:08:30;6.65;;;4.10;;
58139;SDS011;53185;47.378;18.922;2023-08-06T03:10:57;7.40;;;3.90;;
58139;SDS011;53185;47.378;18.922;2023-08-06T03:13:26;7.30;;;3.50;;
58139;SDS011;53185;47.378;18.922;2023-08-06T03:15:56;5.00;;;3.55;;
58139;SDS011;53185;47.378;18.922;2023-08-06T03:18:26;10.13;;;3.37;;
58139;SDS011;53185;47.378;18.922;2023-08-06T03:20:55;4.57;;;3.50;;
58139;SDS011;53185;47.378;18.922;2023-08-06T03:23:24;5.97;;;4.15;;
58139;SDS011;53185;47.378;18.922;2023-08-06T03:25:53;4.72;;;3.37;;
58139;SDS011;53185;47.378;18.922;2023-08-06T03:28:21;5.03;;;3.22;;
58139;SDS011;53185;47.378;18.922;2023-08-06T03:30:58;7.80;;;3.17;;
58139;SDS011;53185;47.378;18.922;2023-08-06T03:33:28;6.65;;;3.35;;
58139;SDS011;53185;47.378;18.922;2023-08-06T03:35:56;5.68;;;3.58;;
58139;SDS011;53185;47.378;18.922;2023-08-06T03:38:25;4.43;;;3.50;;
58139;SDS011;53185;47.378;18.922;2023-08-06T03:40:53;6.78;;;3.72;;
58139;SDS011;53185;47.378;18.922;2023-08-06T03:43:22;9.05;;;4.25;;
58139;SDS011;53185;47.378;18.922;2023-08-06T03:45:50;7.10;;;4.60;;
58139;SDS011;53185;47.378;18.922;2023-08-06T03:48:18;7.43;;;4.95;;
58139;SDS011;53185;47.378;18.922;2023-08-06T03:50:46;7.35;;;4.82;;
58139;SDS011;53185;47.378;18.922;2023-08-06T03:53:13;8.18;;;5.30;;
58139;SDS011;53185;47.378;18.922;2023-08-06T03:55:43;10.55;;;5.47;;
58139;SDS011;53185;47.378;18.922;2023-08-06T03:58:11;8.50;;;4.50;;
58139;SDS011;53185;47.378;18.922;2023-08-06T04:00:39;4.95;;;3.50;;
58139;SDS011;53185;47.378;18.922;2023-08-06T04:03:07;7.37;;;2.90;;
58139;SDS011;53185;47.378;18.922;2023-08-06T04:05:35;4.40;;;2.50;;
58139;SDS011;53185;47.378;18.922;2023-08-06T04:08:05;3.00;;;2.17;;
58139;SDS011;53185;47.378;18.922;2023-08-06T04:10:32;3.65;;;1.87;;
58139;SDS011;53185;47.378;18.922;2023-08-06T04:13:01;4.70;;;2.17;;
58139;SDS011;53185;47.378;18.922;2023-08-06T04:15:30;3.75;;;2.00;;
58139;SDS011;53185;47.378;18.922;2023-08-06T04:18:02;2.30;;;1.80;;
58139;SDS011;53185;47.378;18.922;2023-08-06T04:20:29;2.50;;;1.90;;
58139;SDS011;53185;47.378;18.922;2023-08-06T04:22:57;5.50;;;1.85;;
58139;SDS011;53185;47.378;18.922;2023-08-06T04:25:24;2.35;;;1.75;;
58139;SDS011;53185;47.378;18.922;2023-08-06T04:27:52;2.70;;;2.03;;
58139;SDS011;53185;47.378;18.922;2023-08-06T04:30:20;2.55;;;2.00;;
58139;SDS011;53185;47.378;18.922;2023-08-06T04:32:49;3.40;;;2.00;;
58139;SDS011;53185;47.378;18.922;2023-08-06T04:37:46;1.92;;;1.55;;
58139;SDS011;53185;47.378;18.922;2023-08-06T04:40:13;2.47;;;1.30;;
58139;SDS011;53185;47.378;18.922;2023-08-06T04:42:42;2.65;;;1.50;;
58139;SDS011;53185;47.378;18.922;2023-08-06T04:45:09;1.80;;;1.40;;
58139;SDS011;53185;47.378;18.922;2023-08-06T04:47:37;2.10;;;1.30;;
58139;SDS011;53185;47.378;18.922;2023-08-06T04:50:05;1.77;;;0.90;;
58139;SDS011;53185;47.378;18.922;2023-08-06T04:52:33;2.72;;;0.80;;
58139;SDS011;53185;47.378;18.922;2023-08-06T04:55:00;1.62;;;0.90;;
58139;SDS011;53185;47.378;18.922;2023-08-06T04:57:28;1.92;;;1.25;;
58139;SDS011;53185;47.378;18.922;2023-08-06T04:59:56;0.93;;;0.75;;
58139;SDS011;53185;47.378;18.922;2023-08-06T05:02:23;2.95;;;1.50;;
58139;SDS011;53185;47.378;18.922;2023-08-06T05:04:50;2.85;;;0.70;;
58139;SDS011;53185;47.378;18.922;2023-08-06T05:07:18;3.70;;;0.68;;
58139;SDS011;53185;47.378;18.922;2023-08-06T05:09:45;2.75;;;0.70;;
58139;SDS011;53185;47.378;18.922;2023-08-06T05:12:13;2.83;;;0.60;;
58139;SDS011;53185;47.378;18.922;2023-08-06T05:14:40;0.85;;;0.62;;
58139;SDS011;53185;47.378;18.922;2023-08-06T05:17:08;0.88;;;0.60;;
58139;SDS011;53185;47.378;18.922;2023-08-06T05:19:36;1.92;;;0.50;;
58139;SDS011;53185;47.378;18.922;2023-08-06T05:22:03;0.35;;;0.30;;
58139;SDS011;53185;47.378;18.922;2023-08-06T05:24:31;0.37;;;0.20;;
58139;SDS011;53185;47.378;18.922;2023-08-06T05:26:59;1.20;;;0.28;;
58139;SDS011;53185;47.378;18.922;2023-08-06T05:29:27;0.10;;;0.10;;
58139;SDS011;53185;47.378;18.922;2023-08-06T05:31:54;0.17;;;0.10;;
58139;SDS011;53185;47.378;18.922;2023-08-06T05:34:22;0.00;;;0.00;;
58139;SDS011;53185;47.378;18.922;2023-08-06T05:36:49;2.40;;;0.10;;
58139;SDS011;53185;47.378;18.922;2023-08-06T05:39:17;0.17;;;0.00;;
58139;SDS011;53185;47.378;18.922;2023-08-06T05:41:44;2.05;;;0.15;;
58139;SDS011;53185;47.378;18.922;2023-08-06T05:44:13;0.00;;;0.00;;
58139;SDS011;53185;47.378;18.922;2023-08-06T05:46:40;0.20;;;0.10;;
58139;SDS011;53185;47.378;18.922;2023-08-06T05:49:08;0.22;;;0.03;;
58139;SDS011;53185;47.378;18.922;2023-08-06T05:51:35;0.10;;;0.10;;
58139;SDS011;53185;47.378;18.922;2023-08-06T05:54:04;0.10;;;0.10;;
58139;SDS011;53185;47.378;18.922;2023-08-06T05:56:31;2.20;;;0.20;;
58139;SDS011;53185;47.378;18.922;2023-08-06T05:58:59;0.95;;;0.10;;
58139;SDS011;53185;47.378;18.922;2023-08-06T06:01:27;0.20;;;0.13;;
58139;SDS011;53185;47.378;18.922;2023-08-06T06:03:55;0.22;;;0.17;;
58139;SDS011;53185;47.378;18.922;2023-08-06T06:06:22;0.20;;;0.17;;
58139;SDS011;53185;47.378;18.922;2023-08-06T06:08:50;0.25;;;0.10;;
58139;SDS011;53185;47.378;18.922;2023-08-06T06:11:19;3.78;;;0.68;;
58139;SDS011;53185;47.378;18.922;2023-08-06T06:13:50;0.55;;;0.30;;
58139;SDS011;53185;47.378;18.922;2023-08-06T06:16:18;0.80;;;0.37;;
58139;SDS011;53185;47.378;18.922;2023-08-06T06:18:46;4.55;;;0.40;;
58139;SDS011;53185;47.378;18.922;2023-08-06T06:21:14;0.50;;;0.50;;
58139;SDS011;53185;47.378;18.922;2023-08-06T06:23:41;1.60;;;0.30;;
58139;SDS011;53185;47.378;18.922;2023-08-06T06:26:09;0.30;;;0.30;;
58139;SDS011;53185;47.378;18.922;2023-08-06T06:28:36;0.73;;;0.60;;
58139;SDS011;53185;47.378;18.922;2023-08-06T06:31:04;0.30;;;0.30;;
58139;SDS011;53185;47.378;18.922;2023-08-06T06:33:32;1.00;;;0.60;;
58139;SDS011;53185;47.378;18.922;2023-08-06T06:36:01;0.20;;;0.20;;
58139;SDS011;53185;47.378;18.922;2023-08-06T06:38:30;0.95;;;0.35;;
58139;SDS011;53185;47.378;18.922;2023-08-06T06:40:58;0.55;;;0.55;;
58139;SDS011;53185;47.378;18.922;2023-08-06T06:43:25;3.10;;;0.47;;
58139;SDS011;53185;47.378;18.922;2023-08-06T06:46:00;0.50;;;0.50;;
58139;SDS011;53185;47.378;18.922;2023-08-06T06:48:29;1.55;;;0.40;;
58139;SDS011;53185;47.378;18.922;2023-08-06T06:53:26;3.97;;;0.75;;
58139;SDS011;53185;47.378;18.922;2023-08-06T06:56:00;0.52;;;0.30;;
58139;SDS011;53185;47.378;18.922;2023-08-06T06:58:29;0.20;;;0.20;;
58139;SDS011;53185;47.378;18.922;2023-08-06T07:00:57;2.08;;;0.30;;
58139;SDS011;53185;47.378;18.922;2023-08-06T07:03:24;0.75;;;0.20;;
58139;SDS011;53185;47.378;18.922;2023-08-06T07:05:56;0.20;;;0.20;;
58139;SDS011;53185;47.378;18.922;2023-08-06T07:08:25;0.20;;;0.20;;
58139;SDS011;53185;47.378;18.922;2023-08-06T07:11:01;2.45;;;0.30;;
58139;SDS011;53185;47.378;18.922;2023-08-06T07:13:30;2.05;;;0.20;;
58139;SDS011;53185;47.378;18.922;2023-08-06T07:15:59;0.10;;;0.10;;
58139;SDS011;53185;47.378;18.922;2023-08-06T07:18:27;0.20;;;0.20;;
58139;SDS011;53185;47.378;18.922;2023-08-06T07:20:55;1.23;;;0.37;;
58139;SDS011;53185;47.378;18.922;2023-08-06T07:23:23;0.40;;;0.30;;
58139;SDS011;53185;47.378;18.922;2023-08-06T07:28:21;0.30;;;0.30;;
58139;SDS011;53185;47.378;18.922;2023-08-06T07:30:50;0.30;;;0.30;;
58139;SDS011;53185;47.378;18.922;2023-08-06T07:33:18;0.20;;;0.20;;
58139;SDS011;53185;47.378;18.922;2023-08-06T07:35:47;4.60;;;0.63;;
58139;SDS011;53185;47.378;18.922;2023-08-06T07:38:15;0.62;;;0.35;;
58139;SDS011;53185;47.378;18.922;2023-08-06T07:40:42;2.65;;;0.60;;
58139;SDS011;53185;47.378;18.922;2023-08-06T07:43:11;0.30;;;0.28;;
58139;SDS011;53185;47.378;18.922;2023-08-06T07:45:39;0.37;;;0.20;;
58139;SDS011;53185;47.378;18.922;2023-08-06T07:48:07;4.10;;;0.37;;
58139;SDS011;53185;47.378;18.922;2023-08-06T07:50:34;0.30;;;0.30;;
58139;SDS011;53185;47.378;18.922;2023-08-06T07:53:02;1.40;;;0.30;;
58139;SDS011;53185;47.378;18.922;2023-08-06T07:55:30;0.30;;;0.30;;
58139;SDS011;53185;47.378;18.922;2023-08-06T07:57:58;0.90;;;0.40;;
58139;SDS011;53185;47.378;18.922;2023-08-06T08:00:25;1.48;;;0.57;;
58139;SDS011;53185;47.378;18.922;2023-08-06T08:02:55;2.03;;;0.60;;
58139;SDS011;53185;47.378;18.922;2023-08-06T08:05:23;3.40;;;0.43;;
58139;SDS011;53185;47.378;18.922;2023-08-06T08:07:51;0.88;;;0.40;;
58139;SDS011;53185;47.378;18.922;2023-08-06T08:10:21;0.30;;;0.30;;
58139;SDS011;53185;47.378;18.922;2023-08-06T08:12:49;1.95;;;1.20;;
58139;SDS011;53185;47.378;18.922;2023-08-06T08:15:17;0.68;;;0.52;;
58139;SDS011;53185;47.378;18.922;2023-08-06T08:17:45;3.05;;;2.03;;
58139;SDS011;53185;47.378;18.922;2023-08-06T08:20:15;1.10;;;1.00;;
58139;SDS011;53185;47.378;18.922;2023-08-06T08:22:43;8.77;;;1.00;;
58139;SDS011;53185;47.378;18.922;2023-08-06T08:25:13;1.50;;;0.88;;
58139;SDS011;53185;47.378;18.922;2023-08-06T08:27:42;2.92;;;2.00;;
58139;SDS011;53185;47.378;18.922;2023-08-06T08:30:11;1.48;;;0.88;;
58139;SDS011;53185;47.378;18.922;2023-08-06T08:32:38;0.75;;;0.75;;
58139;SDS011;53185;47.378;18.922;2023-08-06T08:35:06;1.52;;;1.25;;
58139;SDS011;53185;47.378;18.922;2023-08-06T08:37:33;1.15;;;0.75;;
58139;SDS011;53185;47.378;18.922;2023-08-06T08:40:00;2.65;;;1.83;;
58139;SDS011;53185;47.378;18.922;2023-08-06T08:42:29;1.73;;;0.80;;
58139;SDS011;53185;47.378;18.922;2023-08-06T08:44:57;1.20;;;1.10;;
58139;SDS011;53185;47.378;18.922;2023-08-06T08:47:26;1.10;;;0.55;;
58139;SDS011;53185;47.378;18.922;2023-08-06T08:49:54;3.92;;;2.42;;
58139;SDS011;53185;47.378;18.922;2023-08-06T08:52:22;1.20;;;0.98;;
58139;SDS011;53185;47.378;18.922;2023-08-06T08:54:52;1.02;;;0.90;;
58139;SDS011;53185;47.378;18.922;2023-08-06T08:57:21;1.62;;;1.20;;
58139;SDS011;53185;47.378;18.922;2023-08-06T08:59:49;2.55;;;1.55;;
58139;SDS011;53185;47.378;18.922;2023-08-06T09:02:18;4.15;;;2.37;;
58139;SDS011;53185;47.378;18.922;2023-08-06T09:04:48;6.47;;;2.10;;
58139;SDS011;53185;47.378;18.922;2023-08-06T09:07:17;2.85;;;1.00;;
58139;SDS011;53185;47.378;18.922;2023-08-06T09:12:15;1.48;;;1.37;;
58139;SDS011;53185;47.378;18.922;2023-08-06T09:14:43;2.53;;;1.87;;
58139;SDS011;53185;47.378;18.922;2023-08-06T09:17:11;2.92;;;1.80;;
58139;SDS011;53185;47.378;18.922;2023-08-06T09:19:42;1.10;;;1.00;;
58139;SDS011;53185;47.378;18.922;2023-08-06T09:22:15;3.80;;;1.10;;
58139;SDS011;53185;47.378;18.922;2023-08-06T09:24:43;2.92;;;1.50;;
58139;SDS011;53185;47.378;18.922;2023-08-06T09:27:14;2.42;;;1.87;;
58139;SDS011;53185;47.378;18.922;2023-08-06T09:29:43;2.75;;;1.45;;
58139;SDS011;53185;47.378;18.922;2023-08-06T09:32:12;5.57;;;3.20;;
58139;SDS011;53185;47.378;18.922;2023-08-06T09:34:41;1.10;;;0.80;;
58139;SDS011;53185;47.378;18.922;2023-08-06T09:37:09;1.23;;;0.93;;
58139;SDS011;53185;47.378;18.922;2023-08-06T09:39:40;3.95;;;0.90;;
58139;SDS011;53185;47.378;18.922;2023-08-06T09:42:08;1.08;;;0.85;;
58139;SDS011;53185;47.378;18.922;2023-08-06T09:44:36;1.65;;;0.90;;
58139;SDS011;53185;47.378;18.922;2023-08-06T09:47:05;4.30;;;1.77;;
58139;SDS011;53185;47.378;18.922;2023-08-06T09:52:04;0.70;;;0.70;;
58139;SDS011;53185;47.378;18.922;2023-08-06T09:54:35;11.68;;;7.57;;
58139;SDS011;53185;47.378;18.922;2023-08-06T09:57:10;0.70;;;0.70;;
58139;SDS011;53185;47.378;18.922;2023-08-06T09:59:40;1.92;;;0.98;;
58139;SDS011;53185;47.378;18.922;2023-08-06T10:02:12;1.30;;;1.00;;
58139;SDS011;53185;47.378;18.922;2023-08-06T10:04:56;3.80;;;2.60;;
58139;SDS011;53185;47.378;18.922;2023-08-06T10:07:24;2.30;;;0.88;;
58139;SDS011;53185;47.378;18.922;2023-08-06T10:09:52;2.97;;;0.70;;
58139;SDS011;53185;47.378;18.922;2023-08-06T10:12:20;2.83;;;1.60;;
58139;SDS011;53185;47.378;18.922;2023-08-06T10:14:48;1.67;;;0.88;;
58139;SDS011;53185;47.378;18.922;2023-08-06T10:17:17;1.05;;;0.70;;
58139;SDS011;53185;47.378;18.922;2023-08-06T10:19:44;6.15;;;3.42;;
58139;SDS011;53185;47.378;18.922;2023-08-06T10:22:15;2.00;;;0.62;;
58139;SDS011;53185;47.378;18.922;2023-08-06T10:30:26;7.93;;;1.50;;
58139;SDS011;53185;47.378;18.922;2023-08-06T10:32:55;2.65;;;1.23;;
58139;SDS011;53185;47.378;18.922;2023-08-06T10:35:36;5.12;;;1.20;;
58139;SDS011;53185;47.378;18.922;2023-08-06T10:38:17;41.58;;;20.25;;
58139;SDS011;53185;47.378;18.922;2023-08-06T10:43:27;2.75;;;1.70;;
58139;SDS011;53185;47.378;18.922;2023-08-06T10:45:58;3.40;;;2.17;;
58139;SDS011;53185;47.378;18.922;2023-08-06T10:51:10;1.67;;;1.27;;
58139;SDS011;53185;47.378;18.922;2023-08-06T10:53:43;3.50;;;1.20;;
58139;SDS011;53185;47.378;18.922;2023-08-06T10:56:18;2.03;;;1.42;;
58139;SDS011;53185;47.378;18.922;2023-08-06T10:58:53;1.48;;;1.08;;
58139;SDS011;53185;47.378;18.922;2023-08-06T11:01:23;5.28;;;1.70;;
58139;SDS011;53185;47.378;18.922;2023-08-06T11:03:51;1.10;;;1.00;;
58139;SDS011;53185;47.378;18.922;2023-08-06T11:06:22;6.82;;;0.80;;
58139;SDS011;53185;47.378;18.922;2023-08-06T11:08:52;3.53;;;2.12;;
58139;SDS011;53185;47.378;18.922;2023-08-06T11:11:21;4.25;;;2.85;;
58139;SDS011;53185;47.378;18.922;2023-08-06T11:13:51;2.40;;;1.77;;
58139;SDS011;53185;47.378;18.922;2023-08-06T11:16:19;0.98;;;0.88;;
58139;SDS011;53185;47.378;18.922;2023-08-06T11:18:50;3.05;;;1.40;;
58139;SDS011;53185;47.378;18.922;2023-08-06T11:21:20;4.55;;;2.37;;
58139;SDS011;53185;47.378;18.922;2023-08-06T11:23:49;1.37;;;1.02;;
58139;SDS011;53185;47.378;18.922;2023-08-06T11:26:19;2.25;;;1.40;;
58139;SDS011;53185;47.378;18.922;2023-08-06T11:28:48;1.02;;;0.80;;
58139;SDS011;53185;47.378;18.922;2023-08-06T11:31:22;3.65;;;1.95;;
58139;SDS011;53185;47.378;18.922;2023-08-06T11:33:53;2.08;;;1.83;;
58139;SDS011;53185;47.378;18.922;2023-08-06T11:36:30;3.03;;;1.17;;
58139;SDS011;53185;47.378;18.922;2023-08-06T11:38:59;2.03;;;0.98;;
58139;SDS011;53185;47.378;18.922;2023-08-06T11:41:28;1.65;;;1.23;;
58139;SDS011;53185;47.378;18.922;2023-08-06T11:43:57;3.50;;;1.40;;
58139;SDS011;53185;47.378;18.922;2023-08-06T11:46:26;2.92;;;2.35;;
58139;SDS011;53185;47.378;18.922;2023-08-06T11:51:37;4.75;;;1.00;;
58139;SDS011;53185;47.378;18.922;2023-08-06T11:54:05;1.35;;;1.20;;
58139;SDS011;53185;47.378;18.922;2023-08-06T11:56:34;1.20;;;1.10;;
58139;SDS011;53185;47.378;18.922;2023-08-06T11:59:02;3.10;;;2.10;;
58139;SDS011;53185;47.378;18.922;2023-08-06T12:01:30;3.85;;;1.92;;
58139;SDS011;53185;47.378;18.922;2023-08-06T12:04:00;1.70;;;1.33;;
58139;SDS011;53185;47.378;18.922;2023-08-06T12:06:27;2.80;;;1.70;;
58139;SDS011;53185;47.378;18.922;2023-08-06T12:08:56;2.75;;;1.90;;
58139;SDS011;53185;47.378;18.922;2023-08-06T12:11:24;1.70;;;1.10;;
58139;SDS011;53185;47.378;18.922;2023-08-06T12:13:51;3.25;;;1.23;;
58139;SDS011;53185;47.378;18.922;2023-08-06T12:16:19;1.70;;;1.50;;
58139;SDS011;53185;47.378;18.922;2023-08-06T12:18:49;1.20;;;1.10;;
58139;SDS011;53185;47.378;18.922;2023-08-06T12:21:16;6.53;;;2.00;;
58139;SDS011;53185;47.378;18.922;2023-08-06T12:23:44;1.20;;;1.00;;
58139;SDS011;53185;47.378;18.922;2023-08-06T12:26:18;1.10;;;1.00;;
58139;SDS011;53185;47.378;18.922;2023-08-06T12:28:46;3.20;;;1.80;;
58139;SDS011;53185;47.378;18.922;2023-08-06T12:31:13;1.45;;;1.10;;
58139;SDS011;53185;47.378;18.922;2023-08-06T12:33:42;1.20;;;0.80;;
58139;SDS011;53185;47.378;18.922;2023-08-06T12:36:12;1.85;;;1.65;;
58139;SDS011;53185;47.378;18.922;2023-08-06T12:38:39;1.50;;;0.80;;
58139;SDS011;53185;47.378;18.922;2023-08-06T12:41:06;4.90;;;1.05;;
58139;SDS011;53185;47.378;18.922;2023-08-06T12:43:34;5.93;;;1.00;;
58139;SDS011;53185;47.378;18.922;2023-08-06T12:46:01;6.57;;;1.48;;
58139;SDS011;53185;47.378;18.922;2023-08-06T12:48:29;0.70;;;0.70;;
58139;SDS011;53185;47.378;18.922;2023-08-06T12:50:57;1.37;;;0.95;;
58139;SDS011;53185;47.378;18.922;2023-08-06T12:53:24;1.55;;;1.27;;
58139;SDS011;53185;47.378;18.922;2023-08-06T12:55:52;5.78;;;1.98;;
58139;SDS011;53185;47.378;18.922;2023-08-06T12:58:19;2.97;;;1.60;;
58139;SDS011;53185;47.378;18.922;2023-08-06T13:00:47;3.95;;;2.35;;
58139;SDS011;53185;47.378;18.922;2023-08-06T13:03:14;3.40;;;1.50;;
58139;SDS011;53185;47.378;18.922;2023-08-06T13:05:42;5.82;;;1.92;;
58139;SDS011;53185;47.378;18.922;2023-08-06T13:08:13;3.83;;;3.22;;
58139;SDS011;53185;47.378;18.922;2023-08-06T13:10:44;1.83;;;1.67;;
58139;SDS011;53185;47.378;18.922;2023-08-06T13:13:11;2.62;;;1.60;;
58139;SDS011;53185;47.378;18.922;2023-08-06T13:15:38;2.30;;;1.73;;
58139;SDS011;53185;47.378;18.922;2023-08-06T13:18:07;5.72;;;2.70;;
58139;SDS011;53185;47.378;18.922;2023-08-06T13:20:37;2.45;;;2.05;;
58139;SDS011;53185;47.378;18.922;2023-08-06T13:23:09;5.95;;;2.15;;
58139;SDS011;53185;47.378;18.922;2023-08-06T13:25:39;3.65;;;2.33;;
58139;SDS011;53185;47.378;18.922;2023-08-06T13:28:07;7.00;;;3.33;;
58139;SDS011;53185;47.378;18.922;2023-08-06T13:30:37;3.10;;;2.30;;
58139;SDS011;53185;47.378;18.922;2023-08-06T13:33:09;3.33;;;1.90;;
58139;SDS011;53185;47.378;18.922;2023-08-06T13:35:38;2.62;;;1.90;;
58139;SDS011;53185;47.378;18.922;2023-08-06T13:38:06;1.92;;;1.60;;
58139;SDS011;53185;47.378;18.922;2023-08-06T13:40:34;7.93;;;4.28;;
58139;SDS011;53185;47.378;18.922;2023-08-06T13:43:02;5.32;;;3.90;;
58139;SDS011;53185;47.378;18.922;2023-08-06T13:45:32;10.30;;;4.72;;
58139;SDS011;53185;47.378;18.922;2023-08-06T13:48:05;1.45;;;1.35;;
58139;SDS011;53185;47.378;18.922;2023-08-06T13:50:35;6.28;;;2.65;;
58139;SDS011;53185;47.378;18.922;2023-08-06T13:53:22;4.15;;;3.37;;
58139;SDS011;53185;47.378;18.922;2023-08-06T13:55:52;3.78;;;2.47;;
58139;SDS011;53185;47.378;18.922;2023-08-06T13:58:20;1.77;;;1.52;;
58139;SDS011;53185;47.378;18.922;2023-08-06T14:00:48;1.83;;;1.58;;
58139;SDS011;53185;47.378;18.922;2023-08-06T14:03:16;3.00;;;2.30;;
58139;SDS011;53185;47.378;18.922;2023-08-06T14:05:44;3.78;;;2.67;;
58139;SDS011;53185;47.378;18.922;2023-08-06T14:08:13;2.42;;;2.10;;
58139;SDS011;53185;47.378;18.922;2023-08-06T14:10:44;3.08;;;2.25;;
58139;SDS011;53185;47.378;18.922;2023-08-06T14:13:13;2.00;;;1.77;;
58139;SDS011;53185;47.378;18.922;2023-08-06T14:15:44;4.62;;;2.37;;
58139;SDS011;53185;47.378;18.922;2023-08-06T14:18:19;4.53;;;3.55;;
58139;SDS011;53185;47.378;18.922;2023-08-06T14:20:54;4.93;;;2.50;;
58139;SDS011;53185;47.378;18.922;2023-08-06T14:23:22;2.87;;;2.20;;
58139;SDS011;53185;47.378;18.922;2023-08-06T14:25:51;4.57;;;2.30;;
58139;SDS011;53185;47.378;18.922;2023-08-06T14:28:19;4.10;;;2.90;;
58139;SDS011;53185;47.378;18.922;2023-08-06T14:30:47;3.95;;;2.55;;
58139;SDS011;53185;47.378;18.922;2023-08-06T14:33:16;2.40;;;1.62;;
58139;SDS011;53185;47.378;18.922;2023-08-06T14:35:55;3.95;;;2.45;;
58139;SDS011;53185;47.378;18.922;2023-08-06T14:38:23;1.65;;;1.35;;
58139;SDS011;53185;47.378;18.922;2023-08-06T14:40:51;5.05;;;2.67;;
58139;SDS011;53185;47.378;18.922;2023-08-06T14:43:20;2.80;;;2.08;;
58139;SDS011;53185;47.378;18.922;2023-08-06T14:45:48;2.30;;;1.58;;
58139;SDS011;53185;47.378;18.922;2023-08-06T14:48:17;2.65;;;2.10;;
58139;SDS011;53185;47.378;18.922;2023-08-06T14:50:51;1.58;;;1.40;;
58139;SDS011;53185;47.378;18.922;2023-08-06T14:53:20;1.20;;;1.08;;
58139;SDS011;53185;47.378;18.922;2023-08-06T14:55:49;1.58;;;1.37;;
58139;SDS011;53185;47.378;18.922;2023-08-06T14:58:19;4.12;;;1.42;;
58139;SDS011;53185;47.378;18.922;2023-08-06T15:00:47;1.58;;;1.48;;
58139;SDS011;53185;47.378;18.922;2023-08-06T15:03:15;2.08;;;1.52;;
58139;SDS011;53185;47.378;18.922;2023-08-06T15:05:49;1.75;;;1.42;;
58139;SDS011;53185;47.378;18.922;2023-08-06T15:08:18;1.40;;;1.20;;
58139;SDS011;53185;47.378;18.922;2023-08-06T15:10:50;1.87;;;1.48;;
58139;SDS011;53185;47.378;18.922;2023-08-06T15:13:23;4.78;;;1.70;;
58139;SDS011;53185;47.378;18.922;2023-08-06T15:15:52;5.40;;;2.85;;
58139;SDS011;53185;47.378;18.922;2023-08-06T15:18:27;2.37;;;1.60;;